sensor_id;sensor_type;location;lat;lon;timestamp;P1;durP1;ratioP1;P2;durP2;ratioP2
25449;SDS011;13371;52.080;5.624;2023-11-21T00:01:00;21.65;;;9.95;;
25449;SDS011;13371;52.080;5.624;2023-11-21T00:03:29;20.05;;;10.70;;
25449;SDS011;13371;52.080;5.624;2023-11-21T00:05:55;17.95;;;10.38;;
25449;SDS011;13371;52.080;5.624;2023-11-21T00:08:21;20.58;;;10.15;;
25449;SDS011;13371;52.080;5.624;2023-11-21T00:10:46;16.60;;;9.73;;
25449;SDS011;13371;52.080;5.624;2023-11-21T00:13:12;22.10;;;11.00;;
25449;SDS011;13371;52.080;5.624;2023-11-21T00:15:38;18.27;;;10.27;;
25449;SDS011;13371;52.080;5.624;2023-11-21T00:18:04;23.00;;;11.18;;
25449;SDS011;13371;52.080;5.624;2023-11-21T00:20:30;22.17;;;11.32;;
25449;SDS011;13371;52.080;5.624;2023-11-21T00:22:55;21.70;;;10.85;;
25449;SDS011;13371;52.080;5.624;2023-11-21T00:25:21;19.23;;;9.55;;
25449;SDS011;13371;52.080;5.624;2023-11-21T00:27:47;21.40;;;10.98;;
25449;SDS011;13371;52.080;5.624;2023-11-21T00:30:13;22.60;;;10.57;;
25449;SDS011;13371;52.080;5.624;2023-11-21T00:32:38;20.33;;;10.40;;
25449;SDS011;13371;52.080;5.624;2023-11-21T00:35:05;20.20;;;10.20;;
25449;SDS011;13371;52.080;5.624;2023-11-21T00:37:30;23.73;;;10.30;;
25449;SDS011;13371;52.080;5.624;2023-11-21T00:39:57;17.02;;;9.80;;
25449;SDS011;13371;52.080;5.624;2023-11-21T00:42:22;18.20;;;9.60;;
25449;SDS011;13371;52.080;5.624;2023-11-21T00:44:48;21.38;;;10.50;;
25449;SDS011;13371;52.080;5.624;2023-11-21T00:47:14;20.77;;;10.43;;
25449;SDS011;13371;52.080;5.624;2023-11-21T00:49:39;21.80;;;9.77;;
25449;SDS011;13371;52.080;5.624;2023-11-21T00:52:05;17.67;;;10.25;;
25449;SDS011;13371;52.080;5.624;2023-11-21T00:54:31;23.83;;;10.93;;
25449;SDS011;13371;52.080;5.624;2023-11-21T00:56:58;19.75;;;10.30;;
25449;SDS011;13371;52.080;5.624;2023-11-21T00:59:24;24.33;;;10.50;;
25449;SDS011;13371;52.080;5.624;2023-11-21T01:01:49;23.75;;;10.88;;
25449;SDS011;13371;52.080;5.624;2023-11-21T01:04:15;24.75;;;11.13;;
25449;SDS011;13371;52.080;5.624;2023-11-21T01:06:40;25.88;;;11.52;;
25449;SDS011;13371;52.080;5.624;2023-11-21T01:09:06;27.52;;;11.20;;
25449;SDS011;13371;52.080;5.624;2023-11-21T01:11:33;23.20;;;10.77;;
25449;SDS011;13371;52.080;5.624;2023-11-21T01:14:01;23.98;;;11.35;;
25449;SDS011;13371;52.080;5.624;2023-11-21T01:16:28;31.60;;;11.88;;
25449;SDS011;13371;52.080;5.624;2023-11-21T01:18:54;24.98;;;12.10;;
25449;SDS011;13371;52.080;5.624;2023-11-21T01:21:19;26.05;;;12.07;;
25449;SDS011;13371;52.080;5.624;2023-11-21T01:23:45;27.15;;;12.63;;
25449;SDS011;13371;52.080;5.624;2023-11-21T01:26:11;24.40;;;11.68;;
25449;SDS011;13371;52.080;5.624;2023-11-21T01:28:36;25.00;;;11.85;;
25449;SDS011;13371;52.080;5.624;2023-11-21T01:31:02;23.23;;;11.05;;
25449;SDS011;13371;52.080;5.624;2023-11-21T01:33:27;25.20;;;10.98;;
25449;SDS011;13371;52.080;5.624;2023-11-21T01:35:53;24.25;;;10.95;;
25449;SDS011;13371;52.080;5.624;2023-11-21T01:38:19;22.13;;;11.18;;
25449;SDS011;13371;52.080;5.624;2023-11-21T01:40:45;18.42;;;9.80;;
25449;SDS011;13371;52.080;5.624;2023-11-21T01:43:11;19.70;;;9.80;;
25449;SDS011;13371;52.080;5.624;2023-11-21T01:45:36;19.30;;;9.85;;
25449;SDS011;13371;52.080;5.624;2023-11-21T01:48:02;19.08;;;10.32;;
25449;SDS011;13371;52.080;5.624;2023-11-21T01:50:28;18.83;;;10.57;;
25449;SDS011;13371;52.080;5.624;2023-11-21T01:52:54;17.15;;;9.95;;
25449;SDS011;13371;52.080;5.624;2023-11-21T01:55:21;22.08;;;9.82;;
25449;SDS011;13371;52.080;5.624;2023-11-21T01:57:46;17.88;;;9.85;;
25449;SDS011;13371;52.080;5.624;2023-11-21T02:00:13;24.00;;;10.18;;
25449;SDS011;13371;52.080;5.624;2023-11-21T02:02:42;21.52;;;9.50;;
25449;SDS011;13371;52.080;5.624;2023-11-21T02:05:09;21.23;;;10.25;;
25449;SDS011;13371;52.080;5.624;2023-11-21T02:07:45;20.10;;;10.80;;
25449;SDS011;13371;52.080;5.624;2023-11-21T02:10:13;19.70;;;10.70;;
25449;SDS011;13371;52.080;5.624;2023-11-21T02:12:43;24.67;;;11.85;;
25449;SDS011;13371;52.080;5.624;2023-11-21T02:15:12;22.67;;;11.45;;
25449;SDS011;13371;52.080;5.624;2023-11-21T02:17:45;20.42;;;10.85;;
25449;SDS011;13371;52.080;5.624;2023-11-21T02:20:16;24.63;;;11.27;;
25449;SDS011;13371;52.080;5.624;2023-11-21T02:22:43;19.92;;;10.93;;
25449;SDS011;13371;52.080;5.624;2023-11-21T02:25:13;22.48;;;10.65;;
25449;SDS011;13371;52.080;5.624;2023-11-21T02:27:39;23.02;;;11.68;;
25449;SDS011;13371;52.080;5.624;2023-11-21T02:30:05;25.00;;;11.00;;
25449;SDS011;13371;52.080;5.624;2023-11-21T02:32:32;20.50;;;11.32;;
25449;SDS011;13371;52.080;5.624;2023-11-21T02:34:59;26.98;;;12.05;;
25449;SDS011;13371;52.080;5.624;2023-11-21T02:37:26;18.80;;;9.95;;
25449;SDS011;13371;52.080;5.624;2023-11-21T02:39:52;18.48;;;10.65;;
25449;SDS011;13371;52.080;5.624;2023-11-21T02:42:18;23.50;;;12.15;;
25449;SDS011;13371;52.080;5.624;2023-11-21T02:44:43;22.70;;;12.00;;
25449;SDS011;13371;52.080;5.624;2023-11-21T02:47:09;20.20;;;10.98;;
25449;SDS011;13371;52.080;5.624;2023-11-21T02:49:35;23.17;;;10.57;;
25449;SDS011;13371;52.080;5.624;2023-11-21T02:52:00;21.75;;;11.45;;
25449;SDS011;13371;52.080;5.624;2023-11-21T02:54:26;21.58;;;11.07;;
25449;SDS011;13371;52.080;5.624;2023-11-21T02:56:52;23.17;;;10.82;;
25449;SDS011;13371;52.080;5.624;2023-11-21T02:59:18;23.90;;;11.57;;
25449;SDS011;13371;52.080;5.624;2023-11-21T03:01:44;21.42;;;11.57;;
25449;SDS011;13371;52.080;5.624;2023-11-21T03:04:11;21.02;;;11.23;;
25449;SDS011;13371;52.080;5.624;2023-11-21T03:06:43;20.27;;;10.73;;
25449;SDS011;13371;52.080;5.624;2023-11-21T03:09:09;22.35;;;11.75;;
25449;SDS011;13371;52.080;5.624;2023-11-21T03:11:37;22.83;;;10.73;;
25449;SDS011;13371;52.080;5.624;2023-11-21T03:14:03;22.05;;;11.10;;
25449;SDS011;13371;52.080;5.624;2023-11-21T03:16:28;22.45;;;10.38;;
25449;SDS011;13371;52.080;5.624;2023-11-21T03:18:54;21.60;;;11.40;;
25449;SDS011;13371;52.080;5.624;2023-11-21T03:21:20;21.27;;;10.45;;
25449;SDS011;13371;52.080;5.624;2023-11-21T03:23:45;23.73;;;10.60;;
25449;SDS011;13371;52.080;5.624;2023-11-21T03:26:14;20.65;;;10.57;;
25449;SDS011;13371;52.080;5.624;2023-11-21T03:28:39;20.67;;;11.25;;
25449;SDS011;13371;52.080;5.624;2023-11-21T03:31:05;24.40;;;11.05;;
25449;SDS011;13371;52.080;5.624;2023-11-21T03:33:31;21.00;;;10.68;;
25449;SDS011;13371;52.080;5.624;2023-11-21T03:35:57;23.38;;;11.23;;
25449;SDS011;13371;52.080;5.624;2023-11-21T03:38:23;21.85;;;11.20;;
25449;SDS011;13371;52.080;5.624;2023-11-21T03:40:48;24.75;;;11.48;;
25449;SDS011;13371;52.080;5.624;2023-11-21T03:43:15;24.15;;;11.82;;
25449;SDS011;13371;52.080;5.624;2023-11-21T03:45:41;20.60;;;11.48;;
25449;SDS011;13371;52.080;5.624;2023-11-21T03:48:06;19.90;;;11.30;;
25449;SDS011;13371;52.080;5.624;2023-11-21T03:50:33;22.25;;;11.40;;
25449;SDS011;13371;52.080;5.624;2023-11-21T03:52:59;21.80;;;11.63;;
25449;SDS011;13371;52.080;5.624;2023-11-21T03:55:25;22.38;;;10.88;;
25449;SDS011;13371;52.080;5.624;2023-11-21T03:57:51;19.65;;;10.98;;
25449;SDS011;13371;52.080;5.624;2023-11-21T04:00:17;22.55;;;11.13;;
25449;SDS011;13371;52.080;5.624;2023-11-21T04:02:45;19.83;;;10.52;;
25449;SDS011;13371;52.080;5.624;2023-11-21T04:05:10;23.15;;;11.30;;
25449;SDS011;13371;52.080;5.624;2023-11-21T04:07:37;22.25;;;10.90;;
25449;SDS011;13371;52.080;5.624;2023-11-21T04:10:04;23.70;;;11.40;;
25449;SDS011;13371;52.080;5.624;2023-11-21T04:12:33;21.30;;;11.38;;
25449;SDS011;13371;52.080;5.624;2023-11-21T04:14:58;20.92;;;10.48;;
25449;SDS011;13371;52.080;5.624;2023-11-21T04:17:24;20.30;;;10.57;;
25449;SDS011;13371;52.080;5.624;2023-11-21T04:19:49;24.70;;;10.50;;
25449;SDS011;13371;52.080;5.624;2023-11-21T04:22:15;18.58;;;10.27;;
25449;SDS011;13371;52.080;5.624;2023-11-21T04:24:40;18.73;;;10.35;;
25449;SDS011;13371;52.080;5.624;2023-11-21T04:27:06;23.60;;;11.43;;
25449;SDS011;13371;52.080;5.624;2023-11-21T04:29:32;18.33;;;10.13;;
25449;SDS011;13371;52.080;5.624;2023-11-21T04:31:57;19.75;;;9.73;;
25449;SDS011;13371;52.080;5.624;2023-11-21T04:34:23;15.98;;;9.10;;
25449;SDS011;13371;52.080;5.624;2023-11-21T04:36:49;17.10;;;10.05;;
25449;SDS011;13371;52.080;5.624;2023-11-21T04:39:15;18.52;;;10.45;;
25449;SDS011;13371;52.080;5.624;2023-11-21T04:41:40;28.55;;;11.48;;
25449;SDS011;13371;52.080;5.624;2023-11-21T04:44:06;20.90;;;9.80;;
25449;SDS011;13371;52.080;5.624;2023-11-21T04:46:32;16.67;;;9.85;;
25449;SDS011;13371;52.080;5.624;2023-11-21T04:48:57;19.67;;;10.43;;
25449;SDS011;13371;52.080;5.624;2023-11-21T04:51:23;22.30;;;10.52;;
25449;SDS011;13371;52.080;5.624;2023-11-21T04:53:49;20.75;;;10.98;;
25449;SDS011;13371;52.080;5.624;2023-11-21T04:56:15;15.85;;;9.57;;
25449;SDS011;13371;52.080;5.624;2023-11-21T04:58:41;21.65;;;10.30;;
25449;SDS011;13371;52.080;5.624;2023-11-21T05:01:07;21.90;;;10.10;;
25449;SDS011;13371;52.080;5.624;2023-11-21T05:03:33;16.90;;;10.05;;
25449;SDS011;13371;52.080;5.624;2023-11-21T05:05:59;16.92;;;10.07;;
25449;SDS011;13371;52.080;5.624;2023-11-21T05:08:25;16.55;;;8.90;;
25449;SDS011;13371;52.080;5.624;2023-11-21T05:10:51;17.10;;;9.60;;
25449;SDS011;13371;52.080;5.624;2023-11-21T05:13:17;24.65;;;11.02;;
25449;SDS011;13371;52.080;5.624;2023-11-21T05:15:43;20.33;;;10.18;;
25449;SDS011;13371;52.080;5.624;2023-11-21T05:18:09;23.60;;;10.27;;
25449;SDS011;13371;52.080;5.624;2023-11-21T05:20:35;21.42;;;10.10;;
25449;SDS011;13371;52.080;5.624;2023-11-21T05:23:03;16.60;;;9.65;;
25449;SDS011;13371;52.080;5.624;2023-11-21T05:25:28;18.52;;;9.93;;
25449;SDS011;13371;52.080;5.624;2023-11-21T05:27:54;20.85;;;10.00;;
25449;SDS011;13371;52.080;5.624;2023-11-21T05:30:20;21.63;;;9.63;;
25449;SDS011;13371;52.080;5.624;2023-11-21T05:32:46;21.00;;;9.98;;
25449;SDS011;13371;52.080;5.624;2023-11-21T05:35:12;17.85;;;10.63;;
25449;SDS011;13371;52.080;5.624;2023-11-21T05:37:41;19.40;;;9.75;;
25449;SDS011;13371;52.080;5.624;2023-11-21T05:40:07;20.15;;;9.95;;
25449;SDS011;13371;52.080;5.624;2023-11-21T05:42:35;20.23;;;10.13;;
25449;SDS011;13371;52.080;5.624;2023-11-21T05:45:01;20.10;;;11.57;;
25449;SDS011;13371;52.080;5.624;2023-11-21T05:47:45;20.83;;;11.95;;
25449;SDS011;13371;52.080;5.624;2023-11-21T05:50:12;22.50;;;11.07;;
25449;SDS011;13371;52.080;5.624;2023-11-21T05:52:43;18.75;;;11.27;;
25449;SDS011;13371;52.080;5.624;2023-11-21T05:55:10;21.30;;;10.98;;
25449;SDS011;13371;52.080;5.624;2023-11-21T05:57:36;23.63;;;11.57;;
25449;SDS011;13371;52.080;5.624;2023-11-21T06:00:12;27.77;;;11.90;;
25449;SDS011;13371;52.080;5.624;2023-11-21T06:02:50;22.83;;;11.65;;
25449;SDS011;13371;52.080;5.624;2023-11-21T06:05:18;20.05;;;11.32;;
25449;SDS011;13371;52.080;5.624;2023-11-21T06:07:45;21.85;;;11.10;;
25449;SDS011;13371;52.080;5.624;2023-11-21T06:10:11;23.67;;;11.90;;
25449;SDS011;13371;52.080;5.624;2023-11-21T06:12:40;22.48;;;10.68;;
25449;SDS011;13371;52.080;5.624;2023-11-21T06:15:08;22.48;;;11.27;;
25449;SDS011;13371;52.080;5.624;2023-11-21T06:17:35;22.30;;;11.90;;
25449;SDS011;13371;52.080;5.624;2023-11-21T06:20:04;23.73;;;12.38;;
25449;SDS011;13371;52.080;5.624;2023-11-21T06:22:45;29.17;;;13.40;;
25449;SDS011;13371;52.080;5.624;2023-11-21T06:25:12;28.75;;;13.70;;
25449;SDS011;13371;52.080;5.624;2023-11-21T06:27:42;26.02;;;13.48;;
25449;SDS011;13371;52.080;5.624;2023-11-21T06:30:09;32.03;;;13.95;;
25449;SDS011;13371;52.080;5.624;2023-11-21T06:32:37;26.15;;;13.10;;
25449;SDS011;13371;52.080;5.624;2023-11-21T06:35:04;27.48;;;12.55;;
25449;SDS011;13371;52.080;5.624;2023-11-21T06:37:31;20.77;;;11.90;;
25449;SDS011;13371;52.080;5.624;2023-11-21T06:39:57;22.70;;;11.13;;
25449;SDS011;13371;52.080;5.624;2023-11-21T06:42:24;23.95;;;10.82;;
25449;SDS011;13371;52.080;5.624;2023-11-21T06:44:50;21.73;;;11.38;;
25449;SDS011;13371;52.080;5.624;2023-11-21T06:47:21;19.58;;;10.35;;
25449;SDS011;13371;52.080;5.624;2023-11-21T06:49:50;21.25;;;9.68;;
25449;SDS011;13371;52.080;5.624;2023-11-21T06:52:16;19.30;;;10.23;;
25449;SDS011;13371;52.080;5.624;2023-11-21T06:54:43;22.88;;;10.50;;
25449;SDS011;13371;52.080;5.624;2023-11-21T06:57:08;20.48;;;10.35;;
25449;SDS011;13371;52.080;5.624;2023-11-21T06:59:34;20.23;;;10.18;;
25449;SDS011;13371;52.080;5.624;2023-11-21T07:02:00;21.13;;;10.98;;
25449;SDS011;13371;52.080;5.624;2023-11-21T07:04:25;18.45;;;10.15;;
25449;SDS011;13371;52.080;5.624;2023-11-21T07:06:52;22.65;;;11.65;;
25449;SDS011;13371;52.080;5.624;2023-11-21T07:09:19;22.25;;;10.43;;
25449;SDS011;13371;52.080;5.624;2023-11-21T07:11:47;24.23;;;11.98;;
25449;SDS011;13371;52.080;5.624;2023-11-21T07:14:13;19.00;;;9.35;;
25449;SDS011;13371;52.080;5.624;2023-11-21T07:16:39;19.95;;;10.35;;
25449;SDS011;13371;52.080;5.624;2023-11-21T07:19:05;20.42;;;10.65;;
25449;SDS011;13371;52.080;5.624;2023-11-21T07:21:32;24.20;;;10.75;;
25449;SDS011;13371;52.080;5.624;2023-11-21T07:23:58;21.35;;;10.00;;
25449;SDS011;13371;52.080;5.624;2023-11-21T07:26:28;20.00;;;10.60;;
25449;SDS011;13371;52.080;5.624;2023-11-21T07:28:54;20.52;;;11.20;;
25449;SDS011;13371;52.080;5.624;2023-11-21T07:31:21;19.13;;;10.77;;
25449;SDS011;13371;52.080;5.624;2023-11-21T07:33:47;19.02;;;10.43;;
25449;SDS011;13371;52.080;5.624;2023-11-21T07:36:13;20.67;;;11.02;;
25449;SDS011;13371;52.080;5.624;2023-11-21T07:38:40;21.50;;;11.13;;
25449;SDS011;13371;52.080;5.624;2023-11-21T07:41:06;20.75;;;10.85;;
25449;SDS011;13371;52.080;5.624;2023-11-21T07:43:35;21.48;;;10.77;;
25449;SDS011;13371;52.080;5.624;2023-11-21T07:46:01;20.10;;;10.77;;
25449;SDS011;13371;52.080;5.624;2023-11-21T07:48:33;21.13;;;10.38;;
25449;SDS011;13371;52.080;5.624;2023-11-21T07:50:59;29.40;;;10.95;;
25449;SDS011;13371;52.080;5.624;2023-11-21T07:53:27;20.48;;;10.27;;
25449;SDS011;13371;52.080;5.624;2023-11-21T07:55:55;19.52;;;9.18;;
25449;SDS011;13371;52.080;5.624;2023-11-21T07:58:21;16.15;;;8.88;;
25449;SDS011;13371;52.080;5.624;2023-11-21T08:00:47;20.65;;;10.60;;
25449;SDS011;13371;52.080;5.624;2023-11-21T08:03:13;17.52;;;9.30;;
25449;SDS011;13371;52.080;5.624;2023-11-21T08:05:38;20.55;;;9.15;;
25449;SDS011;13371;52.080;5.624;2023-11-21T08:08:04;16.83;;;9.02;;
25449;SDS011;13371;52.080;5.624;2023-11-21T08:10:30;20.05;;;9.70;;
25449;SDS011;13371;52.080;5.624;2023-11-21T08:12:56;15.20;;;9.48;;
25449;SDS011;13371;52.080;5.624;2023-11-21T08:15:21;16.90;;;8.95;;
25449;SDS011;13371;52.080;5.624;2023-11-21T08:17:47;17.35;;;9.10;;
25449;SDS011;13371;52.080;5.624;2023-11-21T08:20:13;19.23;;;8.90;;
25449;SDS011;13371;52.080;5.624;2023-11-21T08:22:42;17.98;;;9.70;;
25449;SDS011;13371;52.080;5.624;2023-11-21T08:25:08;20.90;;;9.05;;
25449;SDS011;13371;52.080;5.624;2023-11-21T08:27:34;24.33;;;10.52;;
25449;SDS011;13371;52.080;5.624;2023-11-21T08:30:00;24.63;;;11.38;;
25449;SDS011;13371;52.080;5.624;2023-11-21T08:32:26;19.17;;;10.63;;
25449;SDS011;13371;52.080;5.624;2023-11-21T08:34:52;17.48;;;9.75;;
25449;SDS011;13371;52.080;5.624;2023-11-21T08:37:17;21.92;;;9.68;;
25449;SDS011;13371;52.080;5.624;2023-11-21T08:39:44;19.75;;;9.15;;
25449;SDS011;13371;52.080;5.624;2023-11-21T08:42:09;17.08;;;9.63;;
25449;SDS011;13371;52.080;5.624;2023-11-21T08:44:35;14.15;;;9.05;;
25449;SDS011;13371;52.080;5.624;2023-11-21T08:47:01;28.77;;;11.15;;
25449;SDS011;13371;52.080;5.624;2023-11-21T08:49:27;20.55;;;10.60;;
25449;SDS011;13371;52.080;5.624;2023-11-21T08:51:54;20.25;;;10.73;;
25449;SDS011;13371;52.080;5.624;2023-11-21T08:54:24;21.83;;;11.18;;
25449;SDS011;13371;52.080;5.624;2023-11-21T08:56:50;21.38;;;10.38;;
25449;SDS011;13371;52.080;5.624;2023-11-21T08:59:19;20.13;;;10.27;;
25449;SDS011;13371;52.080;5.624;2023-11-21T09:01:46;24.00;;;11.00;;
25449;SDS011;13371;52.080;5.624;2023-11-21T09:04:12;16.52;;;10.13;;
25449;SDS011;13371;52.080;5.624;2023-11-21T09:06:38;19.40;;;11.00;;
25449;SDS011;13371;52.080;5.624;2023-11-21T09:09:04;20.67;;;11.23;;
25449;SDS011;13371;52.080;5.624;2023-11-21T09:11:31;20.05;;;10.65;;
25449;SDS011;13371;52.080;5.624;2023-11-21T09:13:59;27.10;;;13.20;;
25449;SDS011;13371;52.080;5.624;2023-11-21T09:16:25;24.27;;;12.65;;
25449;SDS011;13371;52.080;5.624;2023-11-21T09:18:50;28.30;;;12.32;;
25449;SDS011;13371;52.080;5.624;2023-11-21T09:21:16;28.85;;;13.07;;
25449;SDS011;13371;52.080;5.624;2023-11-21T09:23:43;32.60;;;13.00;;
25449;SDS011;13371;52.080;5.624;2023-11-21T09:26:09;28.27;;;13.18;;
25449;SDS011;13371;52.080;5.624;2023-11-21T09:28:35;27.17;;;14.18;;
25449;SDS011;13371;52.080;5.624;2023-11-21T09:31:05;32.58;;;14.15;;
25449;SDS011;13371;52.080;5.624;2023-11-21T09:33:33;28.65;;;14.82;;
25449;SDS011;13371;52.080;5.624;2023-11-21T09:35:59;31.30;;;13.90;;
25449;SDS011;13371;52.080;5.624;2023-11-21T09:38:25;31.05;;;15.50;;
25449;SDS011;13371;52.080;5.624;2023-11-21T09:40:50;33.30;;;15.23;;
25449;SDS011;13371;52.080;5.624;2023-11-21T09:43:18;28.30;;;14.85;;
25449;SDS011;13371;52.080;5.624;2023-11-21T09:45:45;35.72;;;14.80;;
25449;SDS011;13371;52.080;5.624;2023-11-21T09:48:13;31.15;;;14.93;;
25449;SDS011;13371;52.080;5.624;2023-11-21T09:50:41;34.15;;;15.95;;
25449;SDS011;13371;52.080;5.624;2023-11-21T09:53:10;38.13;;;16.40;;
25449;SDS011;13371;52.080;5.624;2023-11-21T09:55:42;29.42;;;14.30;;
25449;SDS011;13371;52.080;5.624;2023-11-21T09:58:09;25.67;;;13.52;;
25449;SDS011;13371;52.080;5.624;2023-11-21T10:00:38;29.00;;;14.32;;
25449;SDS011;13371;52.080;5.624;2023-11-21T10:03:06;28.55;;;13.63;;
25449;SDS011;13371;52.080;5.624;2023-11-21T10:05:32;30.25;;;14.95;;
25449;SDS011;13371;52.080;5.624;2023-11-21T10:07:59;28.23;;;14.30;;
25449;SDS011;13371;52.080;5.624;2023-11-21T10:10:25;29.33;;;13.85;;
25449;SDS011;13371;52.080;5.624;2023-11-21T10:12:55;25.27;;;13.30;;
25449;SDS011;13371;52.080;5.624;2023-11-21T10:15:22;29.05;;;15.63;;
25449;SDS011;13371;52.080;5.624;2023-11-21T10:17:52;30.23;;;13.30;;
25449;SDS011;13371;52.080;5.624;2023-11-21T10:20:20;27.73;;;13.05;;
25449;SDS011;13371;52.080;5.624;2023-11-21T10:22:45;24.05;;;13.07;;
25449;SDS011;13371;52.080;5.624;2023-11-21T10:25:12;22.75;;;12.43;;
25449;SDS011;13371;52.080;5.624;2023-11-21T10:27:41;22.58;;;11.85;;
25449;SDS011;13371;52.080;5.624;2023-11-21T10:30:08;25.90;;;11.55;;
25449;SDS011;13371;52.080;5.624;2023-11-21T10:32:41;23.13;;;11.07;;
25449;SDS011;13371;52.080;5.624;2023-11-21T10:35:08;23.00;;;11.90;;
25449;SDS011;13371;52.080;5.624;2023-11-21T10:37:37;23.95;;;10.93;;
25449;SDS011;13371;52.080;5.624;2023-11-21T10:40:06;23.20;;;11.05;;
25449;SDS011;13371;52.080;5.624;2023-11-21T10:42:33;24.38;;;11.38;;
25449;SDS011;13371;52.080;5.624;2023-11-21T10:44:58;24.25;;;11.25;;
25449;SDS011;13371;52.080;5.624;2023-11-21T10:47:25;21.55;;;10.65;;
25449;SDS011;13371;52.080;5.624;2023-11-21T10:49:51;20.92;;;10.80;;
25449;SDS011;13371;52.080;5.624;2023-11-21T10:52:20;22.05;;;10.55;;
25449;SDS011;13371;52.080;5.624;2023-11-21T10:54:46;21.05;;;9.93;;
25449;SDS011;13371;52.080;5.624;2023-11-21T10:57:13;20.88;;;11.32;;
25449;SDS011;13371;52.080;5.624;2023-11-21T10:59:42;23.40;;;11.27;;
25449;SDS011;13371;52.080;5.624;2023-11-21T11:02:21;28.40;;;11.23;;
25449;SDS011;13371;52.080;5.624;2023-11-21T11:04:52;23.10;;;10.45;;
25449;SDS011;13371;52.080;5.624;2023-11-21T11:07:25;20.88;;;10.05;;
25449;SDS011;13371;52.080;5.624;2023-11-21T11:09:52;27.35;;;10.52;;
25449;SDS011;13371;52.080;5.624;2023-11-21T11:12:19;24.38;;;9.00;;
25449;SDS011;13371;52.080;5.624;2023-11-21T11:14:44;19.80;;;8.60;;
25449;SDS011;13371;52.080;5.624;2023-11-21T11:17:10;20.13;;;9.40;;
25449;SDS011;13371;52.080;5.624;2023-11-21T11:19:36;22.08;;;8.90;;
25449;SDS011;13371;52.080;5.624;2023-11-21T11:22:14;18.83;;;8.55;;
25449;SDS011;13371;52.080;5.624;2023-11-21T11:25:00;19.95;;;8.80;;
25449;SDS011;13371;52.080;5.624;2023-11-21T11:30:11;22.67;;;10.15;;
25449;SDS011;13371;52.080;5.624;2023-11-21T11:35:50;21.45;;;8.68;;
25449;SDS011;13371;52.080;5.624;2023-11-21T11:38:22;19.50;;;9.02;;
25449;SDS011;13371;52.080;5.624;2023-11-21T11:40:52;17.90;;;8.23;;
25449;SDS011;13371;52.080;5.624;2023-11-21T11:43:26;20.48;;;9.85;;
25449;SDS011;13371;52.080;5.624;2023-11-21T11:45:52;23.90;;;9.35;;
25449;SDS011;13371;52.080;5.624;2023-11-21T11:48:21;19.50;;;9.07;;
25449;SDS011;13371;52.080;5.624;2023-11-21T11:51:03;17.13;;;8.50;;
25449;SDS011;13371;52.080;5.624;2023-11-21T11:53:46;19.60;;;8.90;;
25449;SDS011;13371;52.080;5.624;2023-11-21T11:56:19;20.83;;;9.38;;
25449;SDS011;13371;52.080;5.624;2023-11-21T11:58:55;20.58;;;9.57;;
25449;SDS011;13371;52.080;5.624;2023-11-21T12:01:24;18.27;;;8.48;;
25449;SDS011;13371;52.080;5.624;2023-11-21T12:06:51;22.00;;;9.43;;
25449;SDS011;13371;52.080;5.624;2023-11-21T12:09:18;17.42;;;8.68;;
25449;SDS011;13371;52.080;5.624;2023-11-21T12:11:46;18.02;;;8.30;;
25449;SDS011;13371;52.080;5.624;2023-11-21T12:14:14;19.05;;;8.07;;
25449;SDS011;13371;52.080;5.624;2023-11-21T12:16:40;19.48;;;8.20;;
25449;SDS011;13371;52.080;5.624;2023-11-21T12:19:07;20.63;;;8.82;;
25449;SDS011;13371;52.080;5.624;2023-11-21T12:21:33;16.27;;;8.18;;
25449;SDS011;13371;52.080;5.624;2023-11-21T12:23:59;16.88;;;8.23;;
25449;SDS011;13371;52.080;5.624;2023-11-21T12:26:25;17.70;;;8.15;;
25449;SDS011;13371;52.080;5.624;2023-11-21T12:28:53;14.75;;;8.23;;
25449;SDS011;13371;52.080;5.624;2023-11-21T12:31:25;21.27;;;8.25;;
25449;SDS011;13371;52.080;5.624;2023-11-21T12:33:50;15.63;;;8.02;;
25449;SDS011;13371;52.080;5.624;2023-11-21T12:36:17;18.05;;;8.95;;
25449;SDS011;13371;52.080;5.624;2023-11-21T12:38:42;15.30;;;7.63;;
25449;SDS011;13371;52.080;5.624;2023-11-21T12:41:09;19.35;;;8.75;;
25449;SDS011;13371;52.080;5.624;2023-11-21T12:43:35;18.48;;;9.98;;
25449;SDS011;13371;52.080;5.624;2023-11-21T12:46:04;18.05;;;9.45;;
25449;SDS011;13371;52.080;5.624;2023-11-21T12:48:31;19.58;;;9.27;;
25449;SDS011;13371;52.080;5.624;2023-11-21T12:50:57;19.73;;;9.32;;
25449;SDS011;13371;52.080;5.624;2023-11-21T12:53:25;23.17;;;10.25;;
25449;SDS011;13371;52.080;5.624;2023-11-21T12:55:51;23.00;;;11.15;;
25449;SDS011;13371;52.080;5.624;2023-11-21T12:58:16;21.60;;;10.75;;
25449;SDS011;13371;52.080;5.624;2023-11-21T13:00:46;19.20;;;9.85;;
25449;SDS011;13371;52.080;5.624;2023-11-21T13:03:13;25.55;;;12.02;;
25449;SDS011;13371;52.080;5.624;2023-11-21T13:05:45;19.05;;;10.50;;
25449;SDS011;13371;52.080;5.624;2023-11-21T13:08:15;18.25;;;10.50;;
25449;SDS011;13371;52.080;5.624;2023-11-21T13:10:44;21.45;;;9.68;;
25449;SDS011;13371;52.080;5.624;2023-11-21T13:13:11;18.17;;;10.32;;
25449;SDS011;13371;52.080;5.624;2023-11-21T13:15:52;18.92;;;10.00;;
25449;SDS011;13371;52.080;5.624;2023-11-21T13:18:21;18.13;;;10.02;;
25449;SDS011;13371;52.080;5.624;2023-11-21T13:20:48;22.20;;;10.85;;
25449;SDS011;13371;52.080;5.624;2023-11-21T13:23:14;16.92;;;9.80;;
25449;SDS011;13371;52.080;5.624;2023-11-21T13:25:43;18.83;;;9.60;;
25449;SDS011;13371;52.080;5.624;2023-11-21T13:28:10;18.33;;;9.48;;
25449;SDS011;13371;52.080;5.624;2023-11-21T13:30:36;17.40;;;8.73;;
25449;SDS011;13371;52.080;5.624;2023-11-21T13:33:04;18.17;;;9.57;;
25449;SDS011;13371;52.080;5.624;2023-11-21T13:35:37;17.08;;;9.95;;
25449;SDS011;13371;52.080;5.624;2023-11-21T13:38:13;18.85;;;10.50;;
25449;SDS011;13371;52.080;5.624;2023-11-21T13:40:41;19.05;;;9.55;;
25449;SDS011;13371;52.080;5.624;2023-11-21T13:43:12;15.02;;;8.35;;
25449;SDS011;13371;52.080;5.624;2023-11-21T13:45:42;16.50;;;8.18;;
25449;SDS011;13371;52.080;5.624;2023-11-21T13:48:10;15.07;;;8.35;;
25449;SDS011;13371;52.080;5.624;2023-11-21T13:50:42;12.23;;;6.20;;
25449;SDS011;13371;52.080;5.624;2023-11-21T13:53:23;11.10;;;5.68;;
25449;SDS011;13371;52.080;5.624;2023-11-21T13:55:52;10.32;;;4.78;;
25449;SDS011;13371;52.080;5.624;2023-11-21T13:58:19;8.90;;;4.55;;
25449;SDS011;13371;52.080;5.624;2023-11-21T14:01:06;11.52;;;4.60;;
25449;SDS011;13371;52.080;5.624;2023-11-21T14:03:41;11.63;;;4.85;;
25449;SDS011;13371;52.080;5.624;2023-11-21T14:06:16;16.05;;;6.60;;
25449;SDS011;13371;52.080;5.624;2023-11-21T14:08:49;12.73;;;5.70;;
25449;SDS011;13371;52.080;5.624;2023-11-21T14:11:15;13.45;;;6.07;;
25449;SDS011;13371;52.080;5.624;2023-11-21T14:13:45;13.80;;;6.13;;
25449;SDS011;13371;52.080;5.624;2023-11-21T14:16:13;14.68;;;6.00;;
25449;SDS011;13371;52.080;5.624;2023-11-21T14:18:39;13.10;;;6.50;;
25449;SDS011;13371;52.080;5.624;2023-11-21T14:21:17;15.90;;;6.80;;
25449;SDS011;13371;52.080;5.624;2023-11-21T14:23:46;20.13;;;8.05;;
25449;SDS011;13371;52.080;5.624;2023-11-21T14:26:13;18.15;;;8.32;;
25449;SDS011;13371;52.080;5.624;2023-11-21T14:28:40;15.48;;;7.82;;
25449;SDS011;13371;52.080;5.624;2023-11-21T14:31:06;21.23;;;8.40;;
25449;SDS011;13371;52.080;5.624;2023-11-21T14:33:32;20.25;;;10.43;;
25449;SDS011;13371;52.080;5.624;2023-11-21T14:35:58;19.85;;;9.82;;